Terminal Aerodrome Forecast
Issued by NWS

Home | Current Version | Previous Version | Text Only | Print | Product List | Glossary On
Versions: 1 2 3 4 5 6 7 8 9 10 11 12 13 14 15 16 17 18 19 20 21 22 23 24
000
FTPA31 PHFO 171700
TAFKOA
TAF
PHKO 171734Z 1718/1818 10006KT P6SM SCT050
     FM171900 25011KT P6SM SCT060
     FM180200 20010KT P6SM BKN060
     FM181000 VRB05KT P6SM SCT050=

USA.gov is the U.S. government's official web portal to all federal, state and local government web resources and services.